Time;durP1;ratioP1;P1;durP2;ratioP2;P2;SDS_P1;SDS_P2;PMS_P1;PMS_P2;Temp;Humidity;BMP_temperature;BMP_pressure;BME280_temperature;BME280_humidity;BME280_pressure;Samples;Min_cycle;Max_cycle;Signal;HPM_P1;HPM_P2
2021/07/10 00:05:18;;;;;;;12.15;7.10;;;24.50;43.90;;;;;;20232734;28;83608;-72
2021/07/10 00:15:22;;;;;;;12.20;6.22;;;24.50;43.80;;;;;;20234201;28;80977;-72
2021/07/10 00:25:24;;;;;;;12.10;5.22;;;24.50;44.60;;;;;;20213252;28;81128;-72
2021/07/10 00:35:26;;;;;;;16.95;9.73;;;24.40;44.30;;;;;;20209664;28;80081;-71
2021/07/10 00:45:28;;;;;;;8.27;3.40;;;24.20;44.90;;;;;;20211323;28;80872;-71
2021/07/10 00:55:31;;;;;;;7.00;2.67;;;24.20;45.50;;;;;;20203814;28;81613;-73
2021/07/10 01:05:35;;;;;;;7.78;2.72;;;24.10;46.00;;;;;;20208014;28;81157;-71
2021/07/10 01:15:37;;;;;;;3.88;1.42;;;24.20;44.60;;;;;;20199000;28;81704;-72
2021/07/10 01:25:45;;;;;;;3.90;1.20;;;24.40;42.60;;;;;;20215914;28;80578;-71
2021/07/10 01:35:50;;;;;;;2.80;0.95;;;24.70;41.50;;;;;;20218668;28;82492;-71
2021/07/10 01:45:55;;;;;;;5.35;1.20;;;24.90;41.50;;;;;;20204226;28;82308;-71
2021/07/10 01:55:57;;;;;;;4.57;0.95;;;24.90;40.80;;;;;;20203826;28;81084;-72
2021/07/10 02:06:01;;;;;;;5.88;1.17;;;24.90;40.50;;;;;;20201193;28;81042;-72
2021/07/10 02:16:07;;;;;;;5.32;0.82;;;24.90;40.40;;;;;;20196874;28;82374;-71
2021/07/10 02:26:09;;;;;;;11.15;1.73;;;24.80;41.60;;;;;;20172722;28;80784;-71
2021/07/10 02:36:12;;;;;;;7.53;1.20;;;24.60;41.90;;;;;;20203706;28;80755;-72
2021/07/10 02:46:17;;;;;;;6.22;1.25;;;24.40;42.90;;;;;;20223308;28;80690;-71
2021/07/10 02:56:21;;;;;;;6.30;1.70;;;24.20;43.50;;;;;;20213927;28;80938;-72
2021/07/10 03:06:24;;;;;;;6.45;2.67;;;23.90;44.40;;;;;;20213198;28;80686;-73
2021/07/10 03:16:27;;;;;;;3.38;2.53;;;23.90;44.00;;;;;;20231549;28;80780;-72
2021/07/10 03:26:29;;;;;;;7.78;2.50;;;23.70;43.80;;;;;;20211943;28;81792;-72
2021/07/10 03:36:33;;;;;;;8.25;2.90;;;23.50;43.50;;;;;;20223546;28;80951;-71
2021/07/10 03:46:41;;;;;;;16.58;4.63;;;23.40;43.50;;;;;;20229301;28;81594;-71
2021/07/10 03:56:54;;;;;;;10.68;2.67;;;23.40;43.70;;;;;;20221808;28;80721;-72
2021/07/10 04:07:01;;;;;;;6.43;2.80;;;23.30;44.10;;;;;;20216510;28;81783;-72
2021/07/10 04:17:11;;;;;;;5.28;2.63;;;23.20;44.60;;;;;;20216104;28;80680;-72
2021/07/10 04:27:18;;;;;;;5.78;2.70;;;23.00;45.30;;;;;;20236975;28;81879;-72
2021/07/10 04:37:25;;;;;;;6.80;2.78;;;23.00;45.90;;;;;;20187837;28;81334;-72
2021/07/10 04:47:32;;;;;;;9.60;2.85;;;22.80;46.70;;;;;;20227653;28;80740;-72
2021/07/10 04:57:39;;;;;;;7.97;2.80;;;22.70;47.40;;;;;;20222038;28;81814;-71
2021/07/10 05:07:44;;;;;;;5.18;2.65;;;22.60;48.10;;;;;;20208303;28;82448;-71
2021/07/10 05:17:48;;;;;;;8.25;2.90;;;22.60;49.00;;;;;;20208192;28;80661;-71
2021/07/10 05:27:50;;;;;;;5.55;2.50;;;22.60;49.90;;;;;;20221979;28;80923;-71
2021/07/10 05:37:53;;;;;;;5.97;2.55;;;22.70;50.70;;;;;;20208911;28;80715;-74
2021/07/10 05:47:56;;;;;;;7.38;2.83;;;22.80;51.70;;;;;;20205793;28;81779;-74
2021/07/10 05:57:58;;;;;;;6.47;2.22;;;22.80;52.40;;;;;;20199842;28;81978;-71
2021/07/10 06:08:02;;;;;;;11.30;3.17;;;23.00;53.30;;;;;;20221191;28;80907;-71
2021/07/10 06:18:05;;;;;;;6.68;2.30;;;23.20;53.80;;;;;;20223818;28;81037;-71
2021/07/10 06:28:07;;;;;;;5.82;2.00;;;23.30;53.50;;;;;;20218871;28;81898;-71
2021/07/10 06:38:10;;;;;;;4.15;1.88;;;23.40;53.40;;;;;;20212251;28;81225;-70
2021/07/10 06:48:12;;;;;;;9.13;2.97;;;23.40;53.10;;;;;;20222820;28;80694;-71
2021/07/10 06:58:16;;;;;;;11.15;2.85;;;23.60;53.70;;;;;;20216218;28;80047;-70
2021/07/10 07:08:18;;;;;;;9.27;3.03;;;23.80;53.80;;;;;;20214914;28;81781;-71
2021/07/10 07:18:21;;;;;;;7.70;2.22;;;23.90;53.80;;;;;;20217014;28;80763;-72
2021/07/10 07:28:24;;;;;;;6.10;2.20;;;24.00;52.20;;;;;;20215073;28;80686;-71
2021/07/10 07:38:26;;;;;;;14.25;2.25;;;24.20;52.90;;;;;;20236190;28;82013;-74
2021/07/10 07:48:30;;;;;;;4.30;2.33;;;24.30;51.80;;;;;;20230067;28;81172;-74
2021/07/10 07:58:32;;;;;;;9.82;3.10;;;24.40;50.70;;;;;;20217773;28;80668;-72
2021/07/10 08:08:36;;;;;;;8.25;2.50;;;24.60;50.30;;;;;;20215588;28;80761;-72
2021/07/10 08:18:40;;;;;;;9.02;2.40;;;24.70;49.60;;;;;;20214446;28;80695;-74
2021/07/10 08:28:42;;;;;;;11.45;2.60;;;24.90;49.80;;;;;;20205893;28;81345;-72
2021/07/10 08:38:46;;;;;;;7.65;2.20;;;25.10;48.80;;;;;;20215810;28;81814;-72
2021/07/10 08:48:49;;;;;;;10.82;2.78;;;25.30;48.70;;;;;;20227523;28;80287;-72
2021/07/10 08:58:51;;;;;;;7.95;2.72;;;25.50;48.40;;;;;;20222843;28;81266;-71
2021/07/10 09:08:57;;;;;;;5.40;2.00;;;25.80;47.20;;;;;;20225549;28;80936;-70
2021/07/10 09:19:04;;;;;;;10.88;2.08;;;26.00;46.40;;;;;;20207729;28;81823;-69
2021/07/10 09:29:10;;;;;;;8.32;2.70;;;26.30;45.80;;;;;;20200549;28;80459;-71
2021/07/10 09:39:15;;;;;;;5.20;1.88;;;26.80;45.70;;;;;;20217274;28;81808;-70
2021/07/10 09:49:27;;;;;;;10.48;2.38;;;27.20;45.00;;;;;;20201175;28;80683;-70
2021/07/10 09:59:30;;;;;;;10.93;2.10;;;27.80;43.60;;;;;;20218109;28;81485;-70
2021/07/10 10:09:32;;;;;;;9.45;2.03;;;28.40;42.20;;;;;;20234467;28;81968;-70
2021/07/10 10:19:35;;;;;;;6.65;2.65;;;28.90;40.70;;;;;;20202735;28;80319;-69
2021/07/10 10:29:38;;;;;;;10.20;2.45;;;29.40;40.70;;;;;;20203392;28;80309;-70
2021/07/10 10:39:42;;;;;;;7.55;2.85;;;29.90;38.70;;;;;;20219695;28;80759;-70
2021/07/10 10:49:50;;;;;;;9.30;2.78;;;30.30;38.40;;;;;;20196080;28;81053;-71
2021/07/10 10:59:54;;;;;;;6.93;3.03;;;30.90;38.20;;;;;;20213408;28;81055;-70
2021/07/10 11:10:03;;;;;;;10.25;4.93;;;31.90;36.20;;;;;;20199133;28;80169;-71
2021/07/10 11:20:05;;;;;;;11.38;3.80;;;33.50;33.70;;;;;;20211622;28;80798;-71
2021/07/10 11:30:20;;;;;;;10.52;2.33;;;36.30;29.90;;;;;;20217746;28;81007;-70
2021/07/10 11:40:36;;;;;;;14.68;6.38;;;40.00;25.90;;;;;;20197932;28;81632;-70
2021/07/10 11:50:40;;;;;;;15.82;9.73;;;41.10;24.20;;;;;;20208712;28;81014;-72
2021/07/10 12:00:42;;;;;;;8.20;3.40;;;42.90;22.10;;;;;;20208529;28;81982;-71
2021/07/10 12:10:47;;;;;;;10.93;4.10;;;43.30;21.70;;;;;;20210810;28;81042;-71
2021/07/10 12:20:57;;;;;;;8.63;3.65;;;42.60;20.90;;;;;;20205841;28;80579;-71
2021/07/10 12:31:11;;;;;;;62.63;12.00;;;42.00;21.90;;;;;;20207958;28;80827;-72
2021/07/10 12:41:29;;;;;;;19.30;6.80;;;42.90;23.10;;;;;;20190253;28;83350;-70
2021/07/10 12:51:31;;;;;;;57.07;11.80;;;45.00;19.60;;;;;;20204062;28;83323;-73
2021/07/10 13:01:33;;;;;;;15.20;4.32;;;45.60;19.70;;;;;;20203809;28;84551;-68
2021/07/10 13:11:46;;;;;;;28.05;6.85;;;48.40;16.30;;;;;;20226232;28;83280;-68
2021/07/10 13:21:50;;;;;;;70.68;17.83;;;50.40;18.40;;;;;;20209768;28;80444;-69
2021/07/10 13:31:52;;;;;;;61.30;13.07;;;52.00;16.70;;;;;;20191987;28;82806;-68
2021/07/10 13:42:10;;;;;;;80.20;16.65;;;52.50;15.70;;;;;;20191911;28;83425;-69
2021/07/10 13:52:15;;;;;;;11.38;3.40;;;50.40;16.80;;;;;;20197643;28;84420;-69
2021/07/10 14:02:17;;;;;;;3.63;2.47;;;43.50;18.00;;;;;;20204067;28;83616;-71
2021/07/10 14:12:20;;;;;;;5.65;2.50;;;40.90;18.70;;;;;;20243534;28;81010;-71
2021/07/10 14:22:23;;;;;;;25.00;11.07;;;39.70;18.90;;;;;;20202243;28;80562;-72
2021/07/10 14:32:27;;;;;;;41.03;8.40;;;38.20;20.50;;;;;;20189728;28;83700;-69
2021/07/10 14:42:29;;;;;;;36.65;7.60;;;37.40;22.30;;;;;;20202373;28;83308;-69
2021/07/10 14:52:34;;;;;;;9.05;5.03;;;36.80;24.20;;;;;;20215967;28;80841;-71
2021/07/10 15:02:36;;;;;;;4.72;2.45;;;36.10;20.80;;;;;;20209853;28;81211;-70
2021/07/10 15:12:37;;;;;;;4.93;2.22;;;36.50;20.10;;;;;;20239798;28;80634;-71
2021/07/10 15:22:39;;;;;;;3.67;2.35;;;36.60;21.50;;;;;;20218973;28;80873;-71
2021/07/10 15:32:42;;;;;;;5.65;2.78;;;36.60;21.10;;;;;;20215314;28;81804;-71
2021/07/10 15:42:45;;;;;;;5.80;2.55;;;36.40;21.00;;;;;;20211860;28;81175;-71
2021/07/10 15:52:49;;;;;;;7.45;2.78;;;36.20;21.20;;;;;;20214594;28;82346;-71
2021/07/10 16:02:51;;;;;;;4.75;2.60;;;36.00;21.60;;;;;;20215064;28;81595;-71
2021/07/10 16:12:53;;;;;;;4.68;2.50;;;35.90;22.00;;;;;;20245401;28;81074;-72
2021/07/10 16:22:59;;;;;;;98.50;26.27;;;35.70;22.90;;;;;;20241052;28;80872;-71
2021/07/10 16:33:01;;;;;;;64.28;16.50;;;35.60;27.70;;;;;;20192504;28;82951;-71
2021/07/10 16:43:03;;;;;;;19.63;5.32;;;34.40;27.90;;;;;;20197986;28;84855;-71
2021/07/10 16:53:06;;;;;;;39.38;7.10;;;33.90;27.90;;;;;;20213178;28;83342;-71
2021/07/10 17:03:09;;;;;;;8.75;3.17;;;33.40;27.90;;;;;;20210750;28;80646;-71
2021/07/10 17:13:11;;;;;;;5.53;3.83;;;33.30;25.50;;;;;;20217790;28;82221;-70
2021/07/10 17:23:14;;;;;;;5.78;3.05;;;33.90;23.90;;;;;;20206090;28;81779;-69
2021/07/10 17:33:16;;;;;;;3.00;2.70;;;34.10;23.40;;;;;;20204636;28;81217;-68
2021/07/10 17:43:18;;;;;;;5.93;2.70;;;34.00;22.90;;;;;;20211305;28;80844;-69
2021/07/10 17:53:20;;;;;;;3.88;2.90;;;34.00;24.40;;;;;;20224679;28;80861;-70
2021/07/10 18:03:22;;;;;;;4.15;2.70;;;33.70;24.90;;;;;;20208826;28;80698;-69
2021/07/10 18:13:23;;;;;;;29.23;25.08;;;33.60;23.70;;;;;;20203489;28;81409;-71
2021/07/10 18:23:26;;;;;;;3.72;3.08;;;33.50;24.30;;;;;;20190933;28;83450;-70
2021/07/10 18:33:32;;;;;;;12.10;6.30;;;33.30;23.70;;;;;;20212637;28;83365;-74
2021/07/10 18:43:34;;;;;;;8.05;7.25;;;33.00;26.10;;;;;;20226249;28;81646;-72
2021/07/10 18:53:35;;;;;;;7.82;4.70;;;31.80;27.80;;;;;;20243276;28;80479;-74
2021/07/10 19:03:37;;;;;;;5.00;4.20;;;31.40;29.00;;;;;;20199976;28;80678;-73
2021/07/10 19:13:39;;;;;;;5.13;3.70;;;31.00;30.10;;;;;;20237892;28;81595;-73
2021/07/10 19:23:41;;;;;;;6.03;4.00;;;30.90;31.10;;;;;;20237533;28;81804;-73
2021/07/10 19:33:43;;;;;;;10.30;4.40;;;30.60;32.80;;;;;;20211610;28;81118;-69
2021/07/10 19:43:45;;;;;;;10.32;3.75;;;30.40;34.00;;;;;;20214059;28;80810;-69
2021/07/10 19:53:49;;;;;;;5.72;3.85;;;30.10;34.90;;;;;;20233315;28;80873;-69
2021/07/10 20:03:52;;;;;;;9.05;4.03;;;29.90;34.90;;;;;;20212889;28;80739;-69
2021/07/10 20:13:54;;;;;;;7.30;3.65;;;29.80;35.00;;;;;;20235421;28;81036;-70
2021/07/10 20:23:56;;;;;;;7.97;3.22;;;29.60;35.10;;;;;;20230910;28;80712;-70
2021/07/10 20:33:58;;;;;;;7.00;3.78;;;29.50;35.00;;;;;;20202578;28;80438;-73
2021/07/10 20:44:00;;;;;;;28.83;18.00;;;29.40;35.10;;;;;;20221991;28;80929;-70
2021/07/10 20:54:03;;;;;;;17.05;10.25;;;29.20;35.60;;;;;;20230241;28;82888;-74
2021/07/10 21:04:05;;;;;;;14.07;9.27;;;29.00;36.40;;;;;;20221801;28;82839;-74
2021/07/10 21:14:07;;;;;;;21.00;12.63;;;28.90;36.70;;;;;;20229267;28;83328;-77
2021/07/10 21:24:12;;;;;;;17.05;10.05;;;28.70;37.10;;;;;;20215044;28;82894;-76
2021/07/10 21:34:14;;;;;;;22.88;10.45;;;28.60;37.60;;;;;;20214386;28;84533;-75
2021/07/10 21:44:17;;;;;;;13.73;8.18;;;28.50;38.50;;;;;;20204387;28;82823;-73
2021/07/10 21:54:21;;;;;;;14.38;11.45;;;28.40;38.30;;;;;;20206249;28;82857;-73
2021/07/10 22:04:23;;;;;;;84.32;64.72;;;28.30;38.80;;;;;;20193982;28;83035;-75
2021/07/10 22:14:25;;;;;;;21.40;14.02;;;28.00;39.00;;;;;;20189887;28;82957;-69
2021/07/10 22:24:27;;;;;;;13.55;8.98;;;27.90;38.80;;;;;;20173520;28;84730;-69
2021/07/10 22:34:29;;;;;;;36.42;25.65;;;27.80;37.80;;;;;;20207953;28;82227;-69
2021/07/10 22:44:31;;;;;;;12.02;7.72;;;27.70;37.00;;;;;;20210944;28;83050;-73
2021/07/10 22:54:34;;;;;;;35.13;20.25;;;27.50;37.80;;;;;;20205724;28;83394;-73
2021/07/10 23:04:36;;;;;;;24.30;14.48;;;27.20;38.50;;;;;;20194293;28;83756;-73
2021/07/10 23:14:38;;;;;;;12.65;7.60;;;27.00;39.10;;;;;;20199914;28;84537;-73
2021/07/10 23:24:40;;;;;;;12.27;8.60;;;27.00;38.40;;;;;;20236719;28;83229;-73
2021/07/10 23:34:41;;;;;;;11.40;4.80;;;27.00;38.30;;;;;;20211031;28;81028;-72
2021/07/10 23:44:43;;;;;;;9.27;5.00;;;27.00;37.60;;;;;;20235194;28;80889;-73
2021/07/10 23:54:46;;;;;;;8.60;4.95;;;26.80;38.00;;;;;;20215366;28;81324;-69
